This is the latest recevied weather packets stored in our database for station/object RV1CJ-14. If no packets are shown the sender has not sent any weather packets the latest 10 day(s).
| Time | Temp. | Humidity | Pressure | Rain* | Wind** | Luminosity | Snow |
|---|---|---|---|---|---|---|---|
| 1777525803 | 4.44° C | 75% | 1018 hPa | 0 mm | - | 132 W/m² | - |
| 1777525203 | 4.44° C | 76% | 1018 hPa | 0 mm | - | 167 W/m² | - |
| 1777524603 | 3.89° C | 77% | 1018.1 hPa | 0 mm | - | 172 W/m² | - |
| 1777524003 | 3.33° C | 78% | 1018.1 hPa | 0 mm | - | 146 W/m² | - |
| 1777523403 | 3.33° C | 79% | 1018.1 hPa | 0 mm | - | 121 W/m² | - |
| 1777522803 | 2.78° C | 80% | 1018.1 hPa | 0 mm | - | 130 W/m² | - |
| 1777522203 | 2.22° C | 81% | 1018.1 hPa | 0 mm | - | 149 W/m² | - |
| 1777521603 | 2.22° C | 81% | 1018.1 hPa | 0 mm | - | 98 W/m² | - |
| 1777521003 | 1.67° C | 82% | 1018.1 hPa | 0 mm | - | 111 W/m² | - |
| 1777520403 | 1.67° C | 82% | 1018 hPa | 0 mm | - | 72 W/m² | - |
| 1777519803 | 1.11° C | 82% | 1018.1 hPa | 0 mm | - | 32 W/m² | - |
| 1777519203 | 1.11° C | 82% | 1018.1 hPa | 0 mm | - | 25 W/m² | - |
| 1777518603 | 1.11° C | 82% | 1018.1 hPa | 0 mm | - | 23 W/m² | - |
| 1777518003 | 1.11° C | 82% | 1018.1 hPa | 0 mm | - | 23 W/m² | - |
| 1777517403 | 1.11° C | 82% | 1018.2 hPa | 0 mm | - | 25 W/m² | - |
| 1777516803 | 1.11° C | 81% | 1018.2 hPa | 0 mm | - | 28 W/m² | - |
| 1777516203 | 1.11° C | 81% | 1018.3 hPa | 0 mm | - | 21 W/m² | - |
| 1777515603 | 1.11° C | 81% | 1018.2 hPa | 0 mm | - | 14 W/m² | - |
| 1777515003 | 1.11° C | 80% | 1018.2 hPa | 0 mm | - | 7 W/m² | - |
| 1777514403 | 1.11° C | 80% | 1018.3 hPa | 0 mm | - | 0 W/m² | - |
| 1777513803 | 1.11° C | 80% | 1018.3 hPa | 0 mm | - | 0 W/m² | - |
| 1777512003 | 1.11° C | 79% | 1018.4 hPa | 0 mm | - | 0 W/m² | - |
| 1777511403 | 1.11° C | 79% | 1018.5 hPa | 0 mm | - | 0 W/m² | - |
| 1777468803 | 5° C | 58% | 1018.9 hPa | 0 mm | - | 83 W/m² | - |
| 1777465803 | 5° C | 58% | 1018.7 hPa | 0 mm | - | 105 W/m² | - |
* Rain latest hour (hover to see other rain measurements)
** Current wind speed in m/s (hover to see current wind gust speed)